< Typhoon 195708 1957 Season Typhoon 195710 >
Typhoon 195709 (NO-NAME)
General InformationTrack Information on Google Maps || Disaster Info.ResourceGoogle EarthGE AnimationAtom FeedGeoJSON
Detalied Best Track (Time Zone = UTC)
Year Month Day Hour Lat. Long. Pressure (hPa) Wind (kt) Class Image Chart
1957 8 22 18 26.9 133.6 1000 0 2 -- Chart
1957 8 23 00 28.0 133.0 998 0 9 -- Chart
1957 8 23 06 30.0 133.0 998 0 9 -- Chart
1957 8 23 12 31.5 133.3 998 0 9 -- Chart
1957 8 23 18 33.1 133.6 1000 0 2 -- Chart
1957 8 24 00 35.4 135.3 1003 0 2 -- Chart
1957 8 24 06 37.1 138.5 1002 0 2 -- Chart
1957 8 24 12 39.0 140.4 1005 0 6 -- Chart
1957 8 24 18 40.0 143.0 1008 0 6 -- Chart
1957 8 25 00 41.0 147.0 1010 0 6 -- Chart
1957 8 25 06 41.8 150.0 1010 0 6 -- Chart
1957 8 25 12 41.9 153.2 1010 0 6 -- Chart
1957 8 25 18 41.6 156.7 1010 0 6 -- Chart
1957 8 26 00 40.8 159.0 1012 0 6 -- Chart
1957 8 26 06 39.1 161.1 1014 0 6 -- Chart
1957 8 26 12 37.6 163.9 1014 0 6 -- Chart
1957 8 26 18 36.8 165.2 1014 0 6 -- Chart
1957 8 27 00 36.0 166.5 1015 0 6 -- Chart
1957 8 27 06 35.5 168.3 1013 0 6 -- Chart
1957 8 27 12 35.0 172.0 1014 0 6 -- Chart
Japan Meteorological Agency Best Track Data | Correction Date : 1989-06-01
< Typhoon 195708 1957 Season Typhoon 195710 >

Help